createdAt,value
2023-03-05T00:01:33.423Z,-0.03
2023-03-05T00:04:03.043Z,-0.05
2023-03-05T00:06:32.003Z,-0.08
2023-03-05T00:09:00.829Z,-0.07
2023-03-05T00:11:31.795Z,-0.05
2023-03-05T00:14:04.264Z,-0.03
2023-03-05T00:16:33.012Z,-0.05
2023-03-05T00:19:02.524Z,-0.10
2023-03-05T00:21:33.598Z,-0.08
2023-03-05T00:24:03.466Z,-0.13
2023-03-05T00:26:34.659Z,-0.12
2023-03-05T00:29:04.839Z,-0.15
2023-03-05T00:31:35.001Z,-0.16
2023-03-05T00:34:05.611Z,-0.20
2023-03-05T00:36:34.769Z,-0.18
2023-03-05T00:39:03.277Z,-0.22
2023-03-05T00:41:31.529Z,-0.21
2023-03-05T00:43:59.983Z,-0.20
2023-03-05T00:46:30.579Z,-0.19
2023-03-05T00:48:58.932Z,-0.24
2023-03-05T00:51:51.635Z,-0.25
2023-03-05T00:54:20.045Z,-0.26
2023-03-05T00:56:49.267Z,-0.31
2023-03-05T00:59:17.326Z,-0.31
2023-03-05T01:01:47.447Z,-0.31
2023-03-05T01:04:15.926Z,-0.31
2023-03-05T01:06:46.176Z,-0.33
2023-03-05T01:09:15.251Z,-0.33
2023-03-05T01:11:43.444Z,-0.34
2023-03-05T01:14:11.845Z,-0.32
2023-03-05T01:16:40.263Z,-0.31
2023-03-05T01:19:10.062Z,-0.32
2023-03-05T01:21:38.587Z,-0.35
2023-03-05T01:24:07.604Z,-0.39
2023-03-05T01:26:35.831Z,-0.38
2023-03-05T01:29:04.645Z,-0.42
2023-03-05T01:31:32.922Z,-0.43
2023-03-05T01:34:01.421Z,-0.46
2023-03-05T01:36:32.040Z,-0.49
2023-03-05T01:39:00.715Z,-0.50
2023-03-05T01:41:28.748Z,-0.49
2023-03-05T01:43:56.832Z,-0.52
2023-03-05T01:46:28.409Z,-0.50
2023-03-05T01:49:03.327Z,-0.50
2023-03-05T01:51:36.915Z,-0.53
2023-03-05T01:54:07.597Z,-0.52
2023-03-05T01:56:36.526Z,-0.55
2023-03-05T01:59:04.865Z,-0.54
2023-03-05T02:01:37.958Z,-0.56
2023-03-05T02:04:07.744Z,-0.55
2023-03-05T02:06:38.256Z,-0.57
2023-03-05T02:09:06.365Z,-0.55
2023-03-05T02:11:35.462Z,-0.57
2023-03-05T02:14:04.835Z,-0.59
2023-03-05T02:16:37.037Z,-0.59
2023-03-05T02:19:07.084Z,-0.60
2023-03-05T02:21:41.909Z,-0.62
2023-03-05T02:24:13.370Z,-0.62
2023-03-05T02:26:43.250Z,-0.62
2023-03-05T02:29:14.049Z,-0.62
2023-03-05T02:31:43.353Z,-0.63
2023-03-05T02:34:11.946Z,-0.63
2023-03-05T02:36:41.595Z,-0.65
2023-03-05T02:39:10.892Z,-0.67
2023-03-05T02:41:39.230Z,-0.69
2023-03-05T02:44:07.370Z,-0.70
2023-03-05T02:46:35.502Z,-0.70
2023-03-05T02:49:03.881Z,-0.73
2023-03-05T02:51:32.572Z,-0.75
2023-03-05T02:54:02.025Z,-0.76
2023-03-05T02:56:31.356Z,-0.78
2023-03-05T02:59:01.541Z,-0.81
2023-03-05T03:01:30.109Z,-0.81
2023-03-05T03:03:59.073Z,-0.80
2023-03-05T03:06:27.180Z,-0.81
2023-03-05T03:08:55.870Z,-0.82
2023-03-05T03:11:25.246Z,-0.85
2023-03-05T03:13:53.511Z,-0.88
2023-03-05T03:16:21.782Z,-0.90
2023-03-05T03:18:49.868Z,-0.92
2023-03-05T03:21:20.091Z,-0.92
2023-03-05T03:23:48.499Z,-0.95
2023-03-05T03:26:17.360Z,-0.95
2023-03-05T03:28:46.969Z,-0.99
2023-03-05T03:31:15.336Z,-0.99
2023-03-05T03:33:43.877Z,-1.03
2023-03-05T03:36:12.945Z,-1.04
2023-03-05T03:38:40.926Z,-1.05
2023-03-05T03:41:09.859Z,-1.06
2023-03-05T03:43:38.752Z,-1.07
2023-03-05T03:46:09.008Z,-1.11
2023-03-05T03:48:37.114Z,-1.12
2023-03-05T03:51:06.760Z,-1.13
2023-03-05T03:53:35.569Z,-1.13
2023-03-05T03:56:04.477Z,-1.15
2023-03-05T03:58:32.865Z,-1.16
2023-03-05T04:01:01.399Z,-1.20
2023-03-05T04:03:30.954Z,-1.19
2023-03-05T04:05:58.917Z,-1.21
2023-03-05T04:08:27.009Z,-1.22
2023-03-05T04:10:55.141Z,-1.22
2023-03-05T04:13:23.399Z,-1.24
2023-03-05T04:15:51.630Z,-1.25
2023-03-05T04:18:20.358Z,-1.27
2023-03-05T04:20:50.138Z,-1.27
2023-03-05T04:23:19.097Z,-1.29
2023-03-05T04:25:47.037Z,-1.30
2023-03-05T04:28:15.560Z,-1.32
2023-03-05T04:30:43.910Z,-1.32
2023-03-05T04:33:11.966Z,-1.31
2023-03-05T04:35:40.444Z,-1.33
2023-03-05T04:38:10.109Z,-1.34
2023-03-05T04:40:38.857Z,-1.35
2023-03-05T04:43:07.596Z,-1.37
2023-03-05T04:45:35.720Z,-1.36
2023-03-05T04:48:03.931Z,-1.38
2023-03-05T04:50:32.206Z,-1.38
2023-03-05T04:53:00.781Z,-1.41
2023-03-05T04:55:30.373Z,-1.40
2023-03-05T04:57:58.517Z,-1.42
2023-03-05T05:00:27.135Z,-1.44
2023-03-05T05:02:55.659Z,-1.44
2023-03-05T05:05:26.390Z,-1.45
2023-03-05T05:07:56.221Z,-1.44
2023-03-05T05:10:25.641Z,-1.45
2023-03-05T05:12:55.634Z,-1.45
2023-03-05T05:15:23.864Z,-1.43
2023-03-05T05:17:52.645Z,-1.44
2023-03-05T05:20:20.784Z,-1.44
2023-03-05T05:22:49.139Z,-1.49
2023-03-05T05:25:17.559Z,-1.50
2023-03-05T05:27:45.858Z,-1.50
2023-03-05T05:30:15.665Z,-1.51
2023-03-05T05:32:43.765Z,-1.53
2023-03-05T05:35:12.616Z,-1.58
2023-03-05T05:37:41.355Z,-1.59
2023-03-05T05:40:10.629Z,-1.59
2023-03-05T05:42:38.998Z,-1.61
2023-03-05T05:45:08.998Z,-1.62
2023-03-05T05:47:38.562Z,-1.67
2023-03-05T05:50:07.899Z,-1.68
2023-03-05T05:52:36.016Z,-1.70
2023-03-05T05:55:04.555Z,-1.74
2023-03-05T05:57:32.773Z,-1.76
2023-03-05T06:00:01.083Z,-1.78
2023-03-05T06:02:41.461Z,-1.82
2023-03-05T06:05:13.097Z,-1.82
2023-03-05T06:07:41.179Z,-1.80
2023-03-05T06:10:10.997Z,-1.75
2023-03-05T06:12:39.343Z,-1.73
2023-03-05T06:15:09.251Z,-1.72
2023-03-05T06:17:37.729Z,-1.66
2023-03-05T06:20:08.739Z,-1.65
2023-03-05T06:22:38.698Z,-1.64
2023-03-05T06:25:08.388Z,-1.62
2023-03-05T06:27:38.234Z,-1.59
2023-03-05T06:30:08.092Z,-1.55
2023-03-05T06:32:36.168Z,-1.54
2023-03-05T06:35:04.530Z,-1.49
2023-03-05T06:37:35.026Z,-1.41
2023-03-05T06:40:03.905Z,-1.32
2023-03-05T06:42:32.011Z,-1.28
2023-03-05T06:45:00.294Z,-1.23
2023-03-05T06:47:28.401Z,-1.24
2023-03-05T06:49:56.509Z,-1.16
2023-03-05T06:52:24.670Z,-1.16
2023-03-05T06:54:55.849Z,-1.17
2023-03-05T06:57:24.278Z,-1.19
2023-03-05T06:59:52.726Z,-1.21
2023-03-05T07:02:20.951Z,-1.18
2023-03-05T07:04:48.961Z,-1.16
2023-03-05T07:07:17.287Z,-1.15
2023-03-05T07:09:46.054Z,-1.14
2023-03-05T07:12:16.102Z,-1.14
2023-03-05T07:14:44.061Z,-1.10
2023-03-05T07:17:12.159Z,-1.06
2023-03-05T07:19:40.403Z,-1.06
2023-03-05T07:22:09.046Z,-1.07
2023-03-05T07:24:37.730Z,-1.07
2023-03-05T07:27:05.966Z,-1.04
2023-03-05T07:29:36.015Z,-1.05
2023-03-05T07:32:04.592Z,-0.97
2023-03-05T07:34:32.657Z,-0.95
2023-03-05T07:37:00.657Z,-0.82
2023-03-05T07:39:28.959Z,-0.82
2023-03-05T07:41:57.126Z,-0.74
2023-03-05T07:44:31.186Z,-0.69
2023-03-05T07:47:00.886Z,-0.86
2023-03-05T07:49:28.832Z,-0.81
2023-03-05T07:51:56.949Z,-0.88
2023-03-05T07:54:25.314Z,-0.87
2023-03-05T07:56:55.839Z,-0.77
2023-03-05T07:59:23.827Z,-0.84
2023-03-05T08:02:21.848Z,-0.84
2023-03-05T08:04:50.652Z,-0.92
2023-03-05T08:07:19.220Z,-0.86
2023-03-05T08:09:47.668Z,-0.92
2023-03-05T08:12:15.835Z,-0.90
2023-03-05T08:14:44.303Z,-0.87
2023-03-05T08:17:12.867Z,-0.80
2023-03-05T08:19:42.385Z,-0.84
2023-03-05T08:22:10.905Z,-0.81
2023-03-05T08:24:39.689Z,-0.99
2023-03-05T08:27:08.305Z,-1.02
2023-03-05T08:29:36.601Z,-1.13
2023-03-05T08:32:05.938Z,-1.09
2023-03-05T08:34:34.456Z,-1.07
2023-03-05T08:37:04.062Z,-1.03
2023-03-05T08:39:32.398Z,-1.21
2023-03-05T08:42:00.757Z,-1.29
2023-03-05T08:44:29.899Z,-1.27
2023-03-05T08:46:58.268Z,-1.15
2023-03-05T08:49:26.548Z,-0.99
2023-03-05T08:51:54.989Z,-0.97
2023-03-05T08:54:24.710Z,-0.68
2023-03-05T08:56:53.090Z,-0.57
2023-03-05T08:59:21.613Z,-0.70
2023-03-05T09:01:50.202Z,-0.62
2023-03-05T09:04:19.032Z,-0.52
2023-03-05T09:06:47.397Z,-0.74
2023-03-05T09:09:15.573Z,-0.71
2023-03-05T09:11:45.363Z,-0.77
2023-03-05T09:14:13.629Z,-0.73
2023-03-05T09:16:41.918Z,-0.50
2023-03-05T09:19:12.874Z,-0.56
2023-03-05T09:21:40.969Z,-0.58
2023-03-05T09:24:09.438Z,-0.54
2023-03-05T09:26:37.691Z,-0.52
2023-03-05T09:29:08.652Z,-0.34
2023-03-05T09:31:37.574Z,-0.23
2023-03-05T09:34:08.253Z,-0.51
2023-03-05T09:36:36.464Z,-0.56
2023-03-05T09:39:07.025Z,-0.49
2023-03-05T09:41:48.094Z,-0.60
2023-03-05T09:44:27.357Z,-0.63
2023-03-05T09:46:58.296Z,-0.60
2023-03-05T09:49:36.198Z,-0.58
2023-03-05T09:52:12.769Z,-0.41
2023-03-05T09:54:44.726Z,-0.30
2023-03-05T09:57:19.053Z,-0.29
2023-03-05T09:59:51.249Z,-0.21
2023-03-05T10:02:24.201Z,-0.05
2023-03-05T10:04:57.654Z,-0.01
2023-03-05T10:07:31.421Z,0.04
2023-03-05T10:10:02.624Z,0.43
2023-03-05T10:12:42.686Z,0.89
2023-03-05T10:15:16.861Z,1.12
2023-03-05T10:18:13.846Z,0.83
2023-03-05T10:20:56.855Z,0.45
2023-03-05T10:23:30.577Z,0.50
2023-03-05T10:26:28.680Z,0.17
2023-03-05T10:29:06.138Z,0.10
2023-03-05T10:31:50.682Z,0.18
2023-03-05T10:34:42.074Z,0.16
2023-03-05T10:37:48.238Z,0.12
2023-03-05T10:40:23.490Z,0.11
2023-03-05T10:43:00.436Z,0.01
2023-03-05T10:45:34.250Z,0.06
2023-03-05T10:48:13.095Z,-0.11
2023-03-05T10:50:47.647Z,-0.30
2023-03-05T10:53:25.684Z,-0.39
2023-03-05T10:55:56.599Z,-0.22
2023-03-05T10:58:26.166Z,0.08
2023-03-05T11:01:02.981Z,0.37
2023-03-05T11:03:50.811Z,0.29
2023-03-05T11:06:30.279Z,0.12
2023-03-05T11:09:17.273Z,0.13
2023-03-05T11:11:46.136Z,0.17
2023-03-05T11:14:30.103Z,0.37
2023-03-05T11:16:59.128Z,0.45
2023-03-05T11:19:32.943Z,0.35
2023-03-05T11:22:15.882Z,0.31
2023-03-05T11:24:46.929Z,0.23
2023-03-05T11:27:29.768Z,0.14
2023-03-05T11:29:58.509Z,0.29
2023-03-05T11:32:28.668Z,0.66
2023-03-05T11:34:58.927Z,0.94
2023-03-05T11:37:30.297Z,1.05
2023-03-05T11:40:21.147Z,1.84
2023-03-05T11:42:56.962Z,2.36
2023-03-05T11:45:27.610Z,2.03
2023-03-05T11:47:59.823Z,1.91
2023-03-05T11:50:31.865Z,1.80
2023-03-05T11:53:07.487Z,1.69
2023-03-05T11:55:41.651Z,1.43
2023-03-05T11:58:25.781Z,1.23
2023-03-05T12:00:54.178Z,1.21
2023-03-05T12:03:26.919Z,1.04
2023-03-05T12:06:01.478Z,0.85
2023-03-05T12:08:35.885Z,0.71
2023-03-05T12:11:09.258Z,0.68
2023-03-05T12:13:43.169Z,0.60
2023-03-05T12:16:24.424Z,0.60
2023-03-05T12:18:59.052Z,0.56
2023-03-05T12:21:37.080Z,0.50
2023-03-05T12:24:36.699Z,0.56
2023-03-05T12:27:11.064Z,0.51
2023-03-05T12:29:42.457Z,0.34
2023-03-05T12:32:54.310Z,0.39
2023-03-05T12:35:25.279Z,0.55
2023-03-05T12:38:24.266Z,0.69
2023-03-05T12:40:53.764Z,0.65
2023-03-05T12:43:33.436Z,0.41
2023-03-05T12:46:26.945Z,0.21
2023-03-05T12:48:55.625Z,0.11
2023-03-05T12:51:36.109Z,0.44
2023-03-05T12:54:29.853Z,0.61
2023-03-05T12:57:01.256Z,0.52
2023-03-05T12:59:49.946Z,0.51
2023-03-05T13:02:32.954Z,0.50
2023-03-05T13:05:04.376Z,0.55
2023-03-05T13:07:32.764Z,0.50
2023-03-05T13:10:02.628Z,0.47
2023-03-05T13:12:31.828Z,0.51
2023-03-05T13:15:03.409Z,0.53
2023-03-05T13:17:41.415Z,0.28
2023-03-05T13:20:31.513Z,0.07
2023-03-05T13:23:22.140Z,0.04
2023-03-05T13:26:12.130Z,0.19
2023-03-05T13:28:42.134Z,0.26
2023-03-05T13:31:16.016Z,0.30
2023-03-05T13:33:53.385Z,0.29
2023-03-05T13:36:22.260Z,0.30
2023-03-05T13:38:51.109Z,0.18
2023-03-05T13:41:26.631Z,0.14
2023-03-05T13:43:57.257Z,0.22
2023-03-05T13:46:31.594Z,0.14
2023-03-05T13:49:18.350Z,0.04
2023-03-05T13:51:49.556Z,0.10
2023-03-05T13:54:19.111Z,0.09
2023-03-05T13:56:54.566Z,0.09
2023-03-05T13:59:25.372Z,-0.02
2023-03-05T14:01:54.319Z,-0.20
2023-03-05T14:04:25.809Z,-0.40
2023-03-05T14:06:58.298Z,-0.40
2023-03-05T14:09:28.409Z,-0.43
2023-03-05T14:12:02.807Z,-0.50
2023-03-05T14:14:33.768Z,-0.29
2023-03-05T14:17:24.910Z,-0.17
2023-03-05T14:19:53.293Z,-0.20
2023-03-05T14:22:32.913Z,-0.15
2023-03-05T14:25:01.334Z,-0.25
2023-03-05T14:27:34.730Z,-0.24
2023-03-05T14:30:03.781Z,-0.14
2023-03-05T14:32:35.178Z,-0.12
2023-03-05T14:35:05.596Z,-0.02
2023-03-05T14:37:36.680Z,0.02
2023-03-05T14:40:08.058Z,0.00
2023-03-05T14:42:39.813Z,0.00
2023-03-05T14:45:14.048Z,-0.08
2023-03-05T14:47:42.812Z,-0.11
2023-03-05T14:50:15.914Z,-0.11
2023-03-05T14:52:45.329Z,-0.08
2023-03-05T14:55:16.823Z,-0.04
2023-03-05T14:57:47.871Z,-0.07
2023-03-05T15:00:18.555Z,-0.06
2023-03-05T15:02:47.056Z,-0.02
2023-03-05T15:05:15.578Z,-0.01
2023-03-05T15:07:44.877Z,-0.05
2023-03-05T15:10:16.063Z,-0.12
2023-03-05T15:12:44.875Z,-0.15
2023-03-05T15:15:17.460Z,-0.16
2023-03-05T15:17:48.521Z,-0.23
2023-03-05T15:20:19.482Z,-0.28
2023-03-05T15:22:48.143Z,-0.33
2023-03-05T15:25:17.342Z,-0.32
2023-03-05T15:27:46.366Z,-0.27
2023-03-05T15:30:23.769Z,-0.23
2023-03-05T15:32:54.753Z,-0.25
2023-03-05T15:35:25.635Z,-0.28
2023-03-05T15:37:54.201Z,-0.33
2023-03-05T15:40:22.623Z,-0.37
2023-03-05T15:42:51.285Z,-0.39
2023-03-05T15:45:21.185Z,-0.44
2023-03-05T15:47:50.213Z,-0.46
2023-03-05T15:50:19.701Z,-0.49
2023-03-05T15:52:48.727Z,-0.53
2023-03-05T15:55:18.470Z,-0.54
2023-03-05T15:57:48.698Z,-0.57
2023-03-05T16:00:20.206Z,-0.60
2023-03-05T16:02:51.246Z,-0.63
2023-03-05T16:05:19.825Z,-0.63
2023-03-05T16:07:51.840Z,-0.63
2023-03-05T16:10:23.392Z,-0.64
2023-03-05T16:12:56.172Z,-0.65
2023-03-05T16:15:25.419Z,-0.64
2023-03-05T16:17:57.715Z,-0.64
2023-03-05T16:20:26.453Z,-0.65
2023-03-05T16:22:54.860Z,-0.65
2023-03-05T16:25:25.043Z,-0.67
2023-03-05T16:27:53.666Z,-0.67
2023-03-05T16:30:22.268Z,-0.67
2023-03-05T16:32:53.550Z,-0.67
2023-03-05T16:35:23.927Z,-0.67
2023-03-05T16:37:53.038Z,-0.66
2023-03-05T16:40:21.483Z,-0.66
2023-03-05T16:42:50.068Z,-0.68
2023-03-05T16:45:18.771Z,-0.68
2023-03-05T16:47:48.271Z,-0.69
2023-03-05T16:50:16.466Z,-0.75
2023-03-05T16:52:46.104Z,-0.77
2023-03-05T16:55:14.671Z,-0.80
2023-03-05T16:57:43.052Z,-0.81
2023-03-05T17:00:13.179Z,-0.81
2023-03-05T17:02:41.379Z,-0.82
2023-03-05T17:05:09.723Z,-0.80
2023-03-05T17:07:38.166Z,-0.87
2023-03-05T17:10:09.923Z,-0.86
2023-03-05T17:12:38.312Z,-0.87
2023-03-05T17:15:08.014Z,-0.89
2023-03-05T17:17:37.613Z,-0.91
2023-03-05T17:20:07.560Z,-0.91
2023-03-05T17:22:35.931Z,-0.89
2023-03-05T17:25:04.209Z,-0.90
2023-03-05T17:27:34.309Z,-0.90
2023-03-05T17:30:06.038Z,-0.89
2023-03-05T17:32:34.296Z,-0.88
2023-03-05T17:35:05.400Z,-0.89
2023-03-05T17:37:33.958Z,-0.90
2023-03-05T17:40:02.349Z,-0.93
2023-03-05T17:42:30.641Z,-0.92
2023-03-05T17:45:00.372Z,-0.91
2023-03-05T17:47:32.730Z,-0.91
2023-03-05T17:50:00.918Z,-0.94
2023-03-05T17:52:29.216Z,-0.93
2023-03-05T17:54:58.416Z,-0.90
2023-03-05T17:57:27.686Z,-0.92
2023-03-05T17:59:55.896Z,-0.92
2023-03-05T18:02:25.400Z,-0.91
2023-03-05T18:04:54.126Z,-0.89
2023-03-05T18:07:22.256Z,-0.89
2023-03-05T18:09:50.379Z,-0.90
2023-03-05T18:12:19.042Z,-0.86
2023-03-05T18:14:47.608Z,-0.88
2023-03-05T18:17:16.758Z,-0.91
2023-03-05T18:19:46.850Z,-0.93
2023-03-05T18:22:15.678Z,-0.97
2023-03-05T18:24:44.436Z,-1.01
2023-03-05T18:27:12.912Z,-1.05
2023-03-05T18:29:41.755Z,-1.08
2023-03-05T18:32:09.913Z,-1.00
2023-03-05T18:34:38.250Z,-1.04
2023-03-05T18:37:07.950Z,-1.07
2023-03-05T18:39:36.298Z,-1.08
2023-03-05T18:42:04.435Z,-1.11
2023-03-05T18:44:32.607Z,-1.14
2023-03-05T18:47:00.995Z,-1.16
2023-03-05T18:49:29.664Z,-1.14
2023-03-05T18:51:57.779Z,-1.11
2023-03-05T18:54:27.579Z,-1.11
2023-03-05T18:56:56.030Z,-1.11
2023-03-05T18:59:24.244Z,-1.14
2023-03-05T19:01:52.438Z,-1.15
2023-03-05T19:04:20.960Z,-1.15
2023-03-05T19:06:50.185Z,-1.20
2023-03-05T19:09:28.980Z,-1.12
2023-03-05T19:11:58.717Z,-1.08
2023-03-05T19:14:26.803Z,-1.10
2023-03-05T19:16:55.120Z,-1.10
2023-03-05T19:19:24.654Z,-1.07
2023-03-05T19:21:54.270Z,-1.09
2023-03-05T19:24:23.716Z,-1.04
2023-03-05T19:26:55.371Z,-1.02
2023-03-05T19:29:26.500Z,-1.07
2023-03-05T19:31:55.277Z,-1.13
2023-03-05T19:34:23.347Z,-1.11
2023-03-05T19:36:51.776Z,-1.10
2023-03-05T19:39:20.283Z,-1.12
2023-03-05T19:41:48.554Z,-1.18
2023-03-05T19:44:17.154Z,-1.23
2023-03-05T19:46:48.664Z,-1.26
2023-03-05T19:49:17.452Z,-1.26
2023-03-05T19:51:47.172Z,-1.25
2023-03-05T19:54:17.626Z,-1.27
2023-03-05T19:56:46.983Z,-1.28
2023-03-05T19:59:17.375Z,-1.29
2023-03-05T20:01:47.224Z,-1.26
2023-03-05T20:04:20.010Z,-1.33
2023-03-05T20:06:48.865Z,-1.37
2023-03-05T20:09:17.735Z,-1.44
2023-03-05T20:11:46.291Z,-1.53
2023-03-05T20:14:14.954Z,-1.51
2023-03-05T20:16:44.479Z,-1.59
2023-03-05T20:19:20.070Z,-1.69
2023-03-05T20:21:48.968Z,-1.75
2023-03-05T20:24:19.337Z,-1.75
2023-03-05T20:26:48.926Z,-1.83
2023-03-05T20:29:18.735Z,-1.72
2023-03-05T20:31:47.339Z,-1.73
2023-03-05T20:34:22.010Z,-1.85
2023-03-05T20:36:50.749Z,-1.95
2023-03-05T20:39:18.752Z,-2.00
2023-03-05T20:41:47.073Z,-2.00
2023-03-05T20:44:16.702Z,-1.91
2023-03-05T20:46:53.714Z,-1.85
2023-03-05T20:49:23.884Z,-1.71
2023-03-05T20:51:52.330Z,-1.69
2023-03-05T20:54:21.420Z,-1.71
2023-03-05T20:56:49.897Z,-1.79
2023-03-05T20:59:17.877Z,-1.83
2023-03-05T21:01:46.250Z,-1.79
2023-03-05T21:04:14.350Z,-1.81
2023-03-05T21:06:43.890Z,-1.81
2023-03-05T21:09:12.503Z,-1.79
2023-03-05T21:11:40.708Z,-1.86
2023-03-05T21:14:08.845Z,-1.89
2023-03-05T21:16:37.009Z,-1.92
2023-03-05T21:19:05.096Z,-1.93
2023-03-05T21:21:33.106Z,-1.90
2023-03-05T21:24:03.076Z,-1.88
2023-03-05T21:26:31.339Z,-1.83
2023-03-05T21:28:59.433Z,-1.84
2023-03-05T21:31:27.523Z,-1.76
2023-03-05T21:33:56.115Z,-1.74
2023-03-05T21:36:24.087Z,-1.75
2023-03-05T21:38:52.408Z,-1.76
2023-03-05T21:41:23.113Z,-1.61
2023-03-05T21:43:51.531Z,-1.63
2023-03-05T21:46:19.489Z,-1.57
2023-03-05T21:48:47.530Z,-1.55
2023-03-05T21:51:16.893Z,-1.54
2023-03-05T21:53:44.999Z,-1.51
2023-03-05T21:56:22.355Z,-1.49
2023-03-05T21:58:52.445Z,-1.44
2023-03-05T22:01:22.117Z,-1.48
2023-03-05T22:03:51.428Z,-1.49
2023-03-05T22:06:21.441Z,-1.50
2023-03-05T22:08:49.653Z,-1.52
2023-03-05T22:11:21.508Z,-1.51
2023-03-05T22:13:54.051Z,-1.53
2023-03-05T22:16:24.366Z,-1.53
2023-03-05T22:18:52.897Z,-1.55
2023-03-05T22:21:22.787Z,-1.53
2023-03-05T22:23:51.030Z,-1.52
2023-03-05T22:26:19.329Z,-1.52
2023-03-05T22:28:47.823Z,-1.46
2023-03-05T22:31:22.782Z,-1.45
2023-03-05T22:33:51.482Z,-1.39
2023-03-05T22:36:20.600Z,-1.39
2023-03-05T22:38:48.936Z,-1.34
2023-03-05T22:41:19.967Z,-1.32
2023-03-05T22:43:49.369Z,-1.27
2023-03-05T22:46:20.108Z,-1.24
2023-03-05T22:48:51.008Z,-1.24
2023-03-05T22:51:21.004Z,-1.21
2023-03-05T22:53:49.034Z,-1.20
2023-03-05T22:56:19.822Z,-1.20
2023-03-05T22:58:48.418Z,-1.16
2023-03-05T23:01:18.602Z,-1.17
2023-03-05T23:03:47.365Z,-1.14
2023-03-05T23:06:17.111Z,-1.15
2023-03-05T23:08:45.679Z,-1.10
2023-03-05T23:11:14.760Z,-1.04
2023-03-05T23:13:43.552Z,-1.02
2023-03-05T23:16:11.740Z,-1.09
2023-03-05T23:18:39.822Z,-1.07
2023-03-05T23:21:07.840Z,-1.10
2023-03-05T23:23:37.417Z,-1.12
2023-03-05T23:26:06.308Z,-1.12
2023-03-05T23:28:34.548Z,-1.10
2023-03-05T23:31:02.780Z,-1.11
2023-03-05T23:33:31.165Z,-1.13
2023-03-05T23:36:00.820Z,-1.09
2023-03-05T23:38:31.051Z,-1.06
2023-03-05T23:41:03.413Z,-1.08
2023-03-05T23:43:32.221Z,-1.04
2023-03-05T23:46:01.852Z,-1.05
2023-03-05T23:48:31.234Z,-1.03
2023-03-05T23:50:59.456Z,-1.02
2023-03-05T23:53:31.255Z,-0.97
2023-03-05T23:56:01.030Z,-1.02
2023-03-05T23:58:29.518Z,-1.01
